Time;durP1;ratioP1;P1;durP2;ratioP2;P2;SDS_P1;SDS_P2;PMS_P1;PMS_P2;Temp;Humidity;BMP_temperature;BMP_pressure;BME280_temperature;BME280_humidity;BME280_pressure;Samples;Min_cycle;Max_cycle;Signal;HPM_P1;HPM_P2
2021/12/20 00:01:54;;;;;;;13.60;9.48;;;;;;;6.09;85.04;100652.34;4992388;28;20046;-77
2021/12/20 00:04:20;;;;;;;19.33;11.68;;;;;;;6.14;84.39;100640.03;4991517;28;20045;-76
2021/12/20 00:06:45;;;;;;;13.57;9.27;;;;;;;6.10;84.27;100645.34;4991990;28;20498;-77
2021/12/20 00:09:11;;;;;;;18.10;10.25;;;;;;;6.12;84.40;100652.28;4992622;28;20549;-78
2021/12/20 00:11:36;;;;;;;13.93;8.15;;;;;;;6.09;83.74;100644.50;4991825;28;20038;-76
2021/12/20 00:14:02;;;;;;;16.48;9.40;;;;;;;6.00;83.73;100636.78;4994463;28;20093;-75
2021/12/20 00:16:27;;;;;;;15.55;7.93;;;;;;;5.97;83.71;100642.09;4984904;28;20037;-75
2021/12/20 00:18:52;;;;;;;14.90;9.48;;;;;;;5.95;83.94;100636.00;4999862;28;20091;-75
2021/12/20 00:21:18;;;;;;;13.27;8.95;;;;;;;5.95;83.83;100644.72;4996337;28;20034;-75
2021/12/20 00:23:43;;;;;;;12.65;8.13;;;;;;;5.99;84.04;100642.94;4976291;28;20030;-75
2021/12/20 00:26:09;;;;;;;12.75;8.60;;;;;;;5.95;83.90;100628.16;4991892;28;20038;-74
2021/12/20 00:28:35;;;;;;;18.13;10.00;;;;;;;5.96;83.71;100637.75;4991808;28;20110;-75
2021/12/20 00:31:01;;;;;;;20.58;9.45;;;;;;;6.01;83.33;100628.06;4991139;28;20569;-75
2021/12/20 00:33:28;;;;;;;15.85;9.13;;;;;;;6.03;83.13;100623.69;4991817;28;20030;-75
2021/12/20 00:35:54;;;;;;;12.48;8.90;;;;;;;6.04;83.39;100629.78;4989967;28;20092;-74
2021/12/20 00:41:03;;;;;;;21.60;10.13;;;;;;;6.06;82.70;100625.38;4975526;28;20046;-76
2021/12/20 00:43:28;;;;;;;11.40;7.20;;;;;;;6.05;81.10;100627.09;4991145;28;20410;-76
2021/12/20 00:45:54;;;;;;;12.75;6.78;;;;;;;6.03;80.58;100618.44;4990040;28;20084;-75
2021/12/20 00:48:19;;;;;;;12.05;6.50;;;;;;;6.07;81.02;100630.56;4972774;28;20042;-76
2021/12/20 00:50:45;;;;;;;10.05;7.40;;;;;;;6.13;80.29;100617.38;4990955;28;20506;-79
2021/12/20 00:53:13;;;;;;;12.02;7.32;;;;;;;6.11;80.71;100613.06;4990559;28;20034;-76
2021/12/20 00:55:39;;;;;;;12.32;7.60;;;;;;;6.09;80.91;100635.78;4990215;28;20060;-75
2021/12/20 00:58:06;;;;;;;11.73;7.32;;;;;;;6.13;80.79;100624.34;4991127;28;20027;-76
2021/12/20 01:00:43;;;;;;;11.73;6.55;;;;;;;6.11;81.32;100619.16;4987376;28;20046;-76
2021/12/20 01:03:10;;;;;;;9.75;7.75;;;;;;;6.11;80.77;100618.31;4990058;28;20089;-75
2021/12/20 01:05:38;;;;;;;13.63;7.53;;;;;;;6.10;81.00;100614.81;4989917;28;20054;-76
2021/12/20 01:08:06;;;;;;;10.85;6.65;;;;;;;6.15;81.11;100615.63;4973218;28;20077;-76
2021/12/20 01:10:35;;;;;;;10.60;7.57;;;;;;;6.12;80.21;100622.63;4990582;28;20042;-74
2021/12/20 01:13:05;;;;;;;18.90;6.97;;;;;;;6.13;81.03;100622.63;4973772;28;20096;-77
2021/12/20 01:15:35;;;;;;;13.45;8.23;;;;;;;6.10;80.62;100616.56;4990111;28;20105;-77
2021/12/20 01:18:03;;;;;;;10.43;6.63;;;;;;;6.13;80.22;100608.66;4994545;28;20146;-76
2021/12/20 01:20:29;;;;;;;12.27;7.07;;;;;;;6.13;80.08;100616.50;4993067;28;20049;-75
2021/12/20 01:22:58;;;;;;;10.45;6.90;;;;;;;6.19;80.33;100609.41;4997610;28;20494;-75
2021/12/20 01:25:24;;;;;;;10.25;7.25;;;;;;;6.19;79.74;100601.56;4993228;28;20041;-76
2021/12/20 01:27:50;;;;;;;11.05;7.53;;;;;;;6.14;80.48;100618.25;4996942;28;20038;-76
2021/12/20 01:30:17;;;;;;;9.93;6.22;;;;;;;6.17;80.28;100603.34;4998291;28;20038;-75
2021/12/20 01:32:43;;;;;;;12.05;6.25;;;;;;;6.10;80.50;100620.03;4998589;28;20030;-75
2021/12/20 01:35:10;;;;;;;15.60;7.00;;;;;;;6.12;80.39;100620.03;4993907;28;20441;-76
2021/12/20 01:37:38;;;;;;;10.57;7.10;;;;;;;6.05;80.61;100616.63;4991681;28;20488;-75
2021/12/20 01:40:06;;;;;;;12.07;8.05;;;;;;;6.09;80.84;100620.09;4991519;28;20158;-76
2021/12/20 01:42:34;;;;;;;10.52;6.72;;;;;;;6.09;80.69;100613.09;4997031;28;20046;-75
2021/12/20 01:44:59;;;;;;;14.25;9.93;;;;;;;6.07;80.30;100616.63;5006473;28;20054;-75
2021/12/20 01:47:29;;;;;;;19.08;8.15;;;;;;;6.09;80.54;100615.69;4992971;28;20023;-76
2021/12/20 01:50:22;;;;;;;16.40;8.48;;;;;;;6.05;79.91;100621.00;5009433;28;20026;-75
2021/12/20 01:52:42;;;;;;;17.35;8.15;;;;;;;6.08;80.28;100618.34;4992929;28;20034;-76
2021/12/20 01:55:18;;;;;;;9.68;6.80;;;;;;;6.12;79.49;100628.72;5003798;28;20518;-76
2021/12/20 01:57:45;;;;;;;16.73;8.10;;;;;;;6.08;79.67;100620.94;4992193;28;20042;-77
2021/12/20 02:00:19;;;;;;;10.88;8.10;;;;;;;6.12;79.87;100617.41;4992151;28;20034;-76
2021/12/20 02:02:44;;;;;;;14.25;7.78;;;;;;;6.11;79.52;100613.94;4963396;28;20282;-76
2021/12/20 02:05:22;;;;;;;10.63;6.45;;;;;;;6.12;79.43;100601.69;4991666;28;20509;-76
2021/12/20 02:10:14;;;;;;;16.08;7.85;;;;;;;6.11;80.08;100599.97;4972652;28;20494;-74
2021/12/20 02:12:39;;;;;;;16.23;7.78;;;;;;;6.15;79.96;100610.38;4990403;28;20030;-76
2021/12/20 02:15:05;;;;;;;9.95;6.65;;;;;;;6.17;79.77;100603.34;4989645;28;20035;-75
2021/12/20 02:17:31;;;;;;;9.32;6.60;;;;;;;6.15;79.57;100613.00;4989307;28;20495;-76
2021/12/20 02:20:00;;;;;;;11.65;7.05;;;;;;;6.09;79.69;100613.09;4972429;28;20143;-76
2021/12/20 02:22:26;;;;;;;14.68;7.43;;;;;;;6.06;79.51;100607.91;4953743;28;20038;-76
2021/12/20 02:24:51;;;;;;;12.40;6.70;;;;;;;6.04;80.28;100608.84;4989068;28;20516;-76
2021/12/20 02:27:17;;;;;;;13.43;8.00;;;;;;;6.06;80.12;100604.44;4989435;28;20525;-76
2021/12/20 02:29:58;;;;;;;15.25;7.72;;;;;;;6.05;80.25;100602.69;4989209;28;20113;-76
2021/12/20 02:37:53;;;;;;;11.50;7.70;;;;;;;6.11;80.39;100603.47;4989660;28;20217;-76
2021/12/20 02:40:21;;;;;;;16.73;8.70;;;;;;;6.09;80.50;100596.53;4989481;28;20546;-79
2021/12/20 02:42:48;;;;;;;17.13;8.50;;;;;;;6.09;80.41;100591.28;4990282;28;20394;-75
2021/12/20 02:45:15;;;;;;;13.20;7.53;;;;;;;6.07;80.80;100586.06;4988388;28;20125;-76
2021/12/20 02:47:44;;;;;;;16.92;7.15;;;;;;;6.08;81.28;100585.19;4971935;28;20101;-75
2021/12/20 02:50:12;;;;;;;13.10;7.85;;;;;;;6.10;81.46;100590.38;4955435;28;20121;-74
2021/12/20 02:52:38;;;;;;;17.10;8.98;;;;;;;6.12;81.47;100588.59;4989728;28;20443;-75
2021/12/20 02:55:04;;;;;;;15.23;8.65;;;;;;;6.11;80.96;100576.41;4988741;28;20132;-74
2021/12/20 02:57:32;;;;;;;18.90;9.95;;;;;;;6.08;80.95;100586.91;4989149;28;20096;-77
2021/12/20 02:59:57;;;;;;;17.10;8.75;;;;;;;6.11;81.46;100589.50;4988823;28;20042;-76
2021/12/20 03:02:23;;;;;;;17.23;9.60;;;;;;;6.01;80.69;100579.19;4989194;28;20049;-76
2021/12/20 03:04:49;;;;;;;19.67;10.38;;;;;;;5.99;81.28;100580.13;4990535;28;20035;-77
2021/12/20 03:07:21;;;;;;;22.35;11.88;;;;;;;5.99;81.35;100580.97;4992241;28;20042;-75
2021/12/20 03:09:52;;;;;;;15.73;9.30;;;;;;;6.00;81.51;100587.06;4992794;28;20513;-76
2021/12/20 03:12:17;;;;;;;13.63;10.80;;;;;;;6.03;80.55;100587.03;4993311;28;20821;-76
2021/12/20 03:14:46;;;;;;;18.02;10.82;;;;;;;5.98;81.57;100583.59;4991675;28;20042;-76
2021/12/20 03:17:12;;;;;;;20.75;10.77;;;;;;;5.96;81.23;100583.66;4994533;28;20046;-76
2021/12/20 03:19:38;;;;;;;15.70;10.23;;;;;;;5.95;80.89;100591.53;4996174;28;20448;-77
2021/12/20 03:22:06;;;;;;;15.07;9.82;;;;;;;5.92;81.54;100583.69;4996325;28;20039;-75
2021/12/20 03:24:31;;;;;;;15.15;8.35;;;;;;;5.88;81.58;100585.50;4977229;28;20140;-75
2021/12/20 03:26:57;;;;;;;17.08;9.38;;;;;;;5.87;81.78;100590.75;4974136;28;20082;-76
2021/12/20 03:29:22;;;;;;;14.13;8.98;;;;;;;5.87;81.56;100581.16;4975059;28;20042;-76
2021/12/20 03:31:48;;;;;;;23.13;10.70;;;;;;;5.91;81.77;100587.22;4992479;28;20040;-76
2021/12/20 03:34:14;;;;;;;14.65;9.07;;;;;;;5.90;81.94;100599.41;4992937;28;20173;-76
2021/12/20 03:36:40;;;;;;;16.52;10.88;;;;;;;5.87;82.03;100596.84;4991990;28;20038;-77
2021/12/20 03:39:07;;;;;;;14.02;9.15;;;;;;;5.91;82.25;100593.31;4992884;28;20038;-76
2021/12/20 03:41:33;;;;;;;14.80;9.07;;;;;;;5.94;81.89;100600.28;4993242;28;20030;-75
2021/12/20 03:44:00;;;;;;;13.45;8.80;;;;;;;5.90;81.80;100595.94;4979442;28;20035;-75
2021/12/20 03:46:25;;;;;;;17.92;7.72;;;;;;;5.87;82.27;100596.00;5006157;28;20094;-75
2021/12/20 03:48:51;;;;;;;10.23;7.53;;;;;;;5.85;82.03;100593.41;5004789;28;20038;-75
2021/12/20 03:51:17;;;;;;;15.93;8.05;;;;;;;5.81;81.84;100591.75;4993760;28;20054;-76
2021/12/20 03:53:42;;;;;;;14.80;8.75;;;;;;;5.80;82.37;100597.84;4993040;28;20137;-76
2021/12/20 03:56:08;;;;;;;8.85;6.95;;;;;;;5.85;82.23;100592.53;4993600;28;20496;-76
2021/12/20 03:58:34;;;;;;;18.95;6.97;;;;;;;5.85;82.19;100588.16;4993983;28;20042;-76
2021/12/20 04:01:04;;;;;;;16.13;7.85;;;;;;;5.91;82.27;100592.44;4994056;28;20050;-76
2021/12/20 04:03:31;;;;;;;14.23;7.80;;;;;;;5.94;82.50;100589.81;4994857;28;20402;-75
2021/12/20 04:05:57;;;;;;;13.23;8.15;;;;;;;5.94;82.52;100592.41;4976741;28;20050;-76
2021/12/20 04:08:23;;;;;;;17.38;9.05;;;;;;;5.92;81.89;100583.69;4977229;28;20030;-76
2021/12/20 04:10:49;;;;;;;26.33;10.77;;;;;;;5.86;82.22;100578.56;4994038;28;20046;-75
2021/12/20 04:13:14;;;;;;;19.70;10.13;;;;;;;5.82;82.40;100577.75;5000764;28;20038;-74
2021/12/20 04:15:39;;;;;;;15.20;9.18;;;;;;;5.73;82.59;100584.00;5000332;28;20057;-75
2021/12/20 04:18:05;;;;;;;15.32;9.32;;;;;;;5.79;83.25;100593.50;5000071;28;20085;-75
2021/12/20 04:20:31;;;;;;;16.42;8.93;;;;;;;5.81;82.56;100602.22;4990977;28;20078;-76
2021/12/20 04:22:56;;;;;;;18.70;8.38;;;;;;;5.77;83.36;100605.75;4991891;28;20117;-76
2021/12/20 04:25:22;;;;;;;15.40;8.50;;;;;;;5.77;82.61;100601.38;4991397;28;20030;-76
2021/12/20 04:27:47;;;;;;;22.80;9.07;;;;;;;5.79;82.46;100606.59;4991766;28;20038;-75
2021/12/20 04:30:13;;;;;;;16.83;6.75;;;;;;;5.82;82.83;100599.53;4974446;28;20406;-76
2021/12/20 04:32:42;;;;;;;18.05;8.70;;;;;;;5.87;82.57;100601.22;4991856;28;20042;-74
2021/12/20 04:35:08;;;;;;;13.02;8.82;;;;;;;5.84;82.14;100590.81;4990343;28;20092;-77
2021/12/20 04:37:34;;;;;;;20.23;8.85;;;;;;;5.79;82.10;100596.13;4982971;28;20045;-76
2021/12/20 04:40:05;;;;;;;19.83;9.27;;;;;;;5.77;82.09;100596.16;4990460;28;20107;-76
2021/12/20 04:42:31;;;;;;;13.45;8.30;;;;;;;5.74;82.85;100601.44;4990959;28;20050;-75
2021/12/20 04:44:56;;;;;;;14.90;8.73;;;;;;;5.77;82.36;100593.53;4990590;28;20038;-74
2021/12/20 04:47:21;;;;;;;12.32;8.25;;;;;;;5.80;82.07;100583.00;4991139;28;20042;-77
2021/12/20 04:49:46;;;;;;;12.80;8.07;;;;;;;5.82;82.27;100583.84;4991012;28;20038;-76
2021/12/20 04:52:12;;;;;;;18.15;8.88;;;;;;;5.82;81.93;100583.84;4991508;28;20038;-76
2021/12/20 04:54:38;;;;;;;15.55;8.40;;;;;;;5.85;82.15;100582.06;4992607;28;20042;-77
2021/12/20 04:57:03;;;;;;;12.00;7.75;;;;;;;5.82;81.70;100576.00;4990909;28;20031;-77
2021/12/20 04:59:28;;;;;;;27.17;9.35;;;;;;;5.81;81.44;100576.03;4973692;28;20042;-77
2021/12/20 05:01:54;;;;;;;14.85;8.07;;;;;;;5.81;81.09;100574.28;4973566;28;20034;-76
2021/12/20 05:04:19;;;;;;;17.90;8.13;;;;;;;5.75;81.07;100576.97;4990954;28;20606;-77
2021/12/20 05:06:45;;;;;;;13.63;8.20;;;;;;;5.72;80.81;100571.81;4989021;28;20035;-76
2021/12/20 05:09:10;;;;;;;16.42;7.50;;;;;;;5.71;81.24;100569.22;4991799;28;20042;-78
2021/12/20 05:11:36;;;;;;;11.95;7.32;;;;;;;5.67;79.99;100578.88;4990676;28;20041;-77
2021/12/20 05:14:02;;;;;;;23.35;8.07;;;;;;;5.60;80.23;100582.47;4991239;28;20121;-77
2021/12/20 05:16:28;;;;;;;15.65;8.35;;;;;;;5.61;80.15;100581.56;4989897;28;20808;-77
2021/12/20 05:18:54;;;;;;;16.00;7.32;;;;;;;5.62;80.56;100579.84;4990632;28;20038;-75
2021/12/20 05:21:19;;;;;;;17.05;7.97;;;;;;;5.60;80.40;100585.09;4990259;28;20038;-75
2021/12/20 05:23:45;;;;;;;17.40;7.35;;;;;;;5.60;80.16;100582.47;4990657;28;20556;-75
2021/12/20 05:26:10;;;;;;;21.42;6.95;;;;;;;5.65;80.53;100585.88;4990106;28;20113;-76
2021/12/20 05:28:35;;;;;;;20.02;7.95;;;;;;;5.65;79.93;100587.63;4990233;28;20034;-76
2021/12/20 05:31:01;;;;;;;15.63;7.07;;;;;;;5.54;79.01;100587.81;4990813;28;20062;-75
2021/12/20 05:33:27;;;;;;;21.48;7.57;;;;;;;5.51;79.63;100591.34;4991012;28;20030;-76
2021/12/20 05:35:53;;;;;;;20.30;7.82;;;;;;;5.48;79.10;100593.13;4989790;28;20035;-76
2021/12/20 05:38:18;;;;;;;18.90;7.05;;;;;;;5.47;79.50;100591.41;4989892;28;20031;-75
2021/12/20 05:40:44;;;;;;;21.00;8.77;;;;;;;5.46;78.90;100593.13;4990879;28;20800;-76
2021/12/20 05:43:09;;;;;;;17.73;5.70;;;;;;;5.48;79.03;100593.97;4973351;28;20031;-76
2021/12/20 05:45:35;;;;;;;20.17;6.45;;;;;;;5.45;78.53;100596.66;4972501;28;20032;-75
2021/12/20 05:48:00;;;;;;;16.77;7.30;;;;;;;5.46;78.70;100597.50;4990206;28;20439;-75
2021/12/20 05:50:26;;;;;;;12.90;5.82;;;;;;;5.43;78.12;100597.56;4990317;28;20463;-77
2021/12/20 05:52:51;;;;;;;24.52;7.90;;;;;;;5.45;76.67;100598.41;4990382;28;20512;-76
2021/12/20 05:55:18;;;;;;;14.77;5.32;;;;;;;5.46;77.24;100595.75;4991052;28;20034;-77
2021/12/20 05:57:44;;;;;;;19.40;5.40;;;;;;;5.41;72.40;100604.56;4990746;28;20109;-75
2021/12/20 06:00:18;;;;;;;18.88;7.50;;;;;;;5.44;74.01;100609.75;4973276;28;20035;-77
2021/12/20 06:02:45;;;;;;;19.15;4.93;;;;;;;5.51;75.08;100600.91;4989852;28;20521;-73
2021/12/20 06:05:11;;;;;;;20.75;5.95;;;;;;;5.58;74.76;100607.78;4989402;28;20042;-74
2021/12/20 06:07:40;;;;;;;14.85;4.90;;;;;;;5.56;73.17;100602.59;4972922;28;20034;-75
2021/12/20 06:10:07;;;;;;;16.25;5.07;;;;;;;5.56;73.24;100607.84;4973207;28;20045;-77
2021/12/20 06:12:33;;;;;;;17.50;5.93;;;;;;;5.59;72.29;100602.53;4973216;28;20030;-74
2021/12/20 06:14:58;;;;;;;16.65;5.00;;;;;;;5.63;71.99;100612.94;4990051;28;20095;-76
2021/12/20 06:17:23;;;;;;;16.25;5.05;;;;;;;5.62;70.61;100612.09;4973478;28;20034;-76
2021/12/20 06:19:49;;;;;;;22.95;6.03;;;;;;;5.65;70.98;100612.03;4991732;28;20039;-75
2021/12/20 06:22:14;;;;;;;16.70;4.60;;;;;;;5.72;71.60;100610.19;4998074;28;20094;-76
2021/12/20 06:24:40;;;;;;;25.83;5.63;;;;;;;5.70;68.79;100615.44;4998869;28;20096;-75
2021/12/20 06:27:06;;;;;;;17.75;5.45;;;;;;;5.69;69.63;100612.88;4999964;28;20050;-76
2021/12/20 06:29:31;;;;;;;19.58;5.65;;;;;;;5.72;70.09;100610.19;4984892;28;20053;-77
2021/12/20 06:31:57;;;;;;;34.78;8.35;;;;;;;5.69;70.11;100605.88;5002371;28;20022;-76
2021/12/20 06:34:22;;;;;;;26.75;7.05;;;;;;;5.69;70.88;100608.50;4983080;28;20046;-76
2021/12/20 06:36:48;;;;;;;18.63;6.53;;;;;;;5.72;70.41;100612.81;4990708;28;20046;-74
2021/12/20 06:39:13;;;;;;;23.52;6.75;;;;;;;5.72;70.69;100615.44;4990171;28;20117;-76
2021/12/20 06:41:39;;;;;;;12.68;5.03;;;;;;;5.70;71.16;100615.44;4989913;28;20042;-76
2021/12/20 06:44:05;;;;;;;16.10;5.35;;;;;;;5.69;71.45;100621.56;4989036;28;20034;-76
2021/12/20 06:46:33;;;;;;;21.80;7.10;;;;;;;5.74;71.26;100618.88;4988818;28;20026;-75
2021/12/20 06:48:59;;;;;;;21.88;5.68;;;;;;;5.76;70.75;100615.34;4989176;28;20125;-75
2021/12/20 06:51:25;;;;;;;17.30;5.30;;;;;;;5.70;70.96;100618.06;4989428;28;20037;-75
2021/12/20 06:53:51;;;;;;;18.50;5.30;;;;;;;5.73;70.65;100625.00;4971309;28;20038;-74
2021/12/20 06:56:17;;;;;;;18.88;5.47;;;;;;;5.65;70.86;100625.13;4971844;28;20092;-74
2021/12/20 06:58:42;;;;;;;19.67;5.88;;;;;;;5.66;71.47;100620.75;4989107;28;20038;-73
2021/12/20 07:01:07;;;;;;;26.58;6.05;;;;;;;5.60;71.82;100616.47;4988949;28;20494;-74
2021/12/20 07:03:33;;;;;;;19.58;6.18;;;;;;;5.62;71.88;100614.72;4990077;28;20064;-76
2021/12/20 07:05:58;;;;;;;20.27;6.20;;;;;;;5.65;71.67;100619.88;4971675;28;20049;-76
2021/12/20 07:08:23;;;;;;;20.42;5.28;;;;;;;5.68;71.77;100613.75;4988655;28;20065;-76
2021/12/20 07:10:49;;;;;;;21.10;6.30;;;;;;;5.70;72.30;100617.19;4989155;28;20030;-76
2021/12/20 07:13:14;;;;;;;18.73;5.97;;;;;;;5.68;73.09;100614.59;4988902;28;20058;-76
2021/12/20 07:15:40;;;;;;;15.88;4.75;;;;;;;5.73;72.84;100619.75;4988013;28;20037;-77
2021/12/20 07:18:06;;;;;;;15.70;4.80;;;;;;;5.70;72.77;100625.91;4988922;28;20046;-76
2021/12/20 07:20:31;;;;;;;24.30;6.65;;;;;;;5.71;72.48;100624.16;4979874;28;20042;-76
2021/12/20 07:22:57;;;;;;;16.30;7.35;;;;;;;5.69;72.18;100634.66;4988933;28;20034;-76
2021/12/20 07:25:22;;;;;;;15.60;5.43;;;;;;;5.69;72.65;100626.81;4987951;28;20050;-74
2021/12/20 07:27:49;;;;;;;25.63;8.77;;;;;;;5.75;73.09;100633.69;4988992;28;20037;-75
2021/12/20 07:30:15;;;;;;;18.67;6.20;;;;;;;5.75;72.42;100637.16;4988831;28;20042;-75
2021/12/20 07:32:40;;;;;;;19.80;5.38;;;;;;;5.69;72.39;100634.66;4989173;28;20034;-76
2021/12/20 07:35:06;;;;;;;19.95;5.60;;;;;;;5.63;72.43;100639.09;4988030;28;20138;-76
2021/12/20 07:37:32;;;;;;;24.33;5.95;;;;;;;5.59;72.73;100638.31;4955187;28;20502;-76
2021/12/20 07:39:57;;;;;;;23.77;6.05;;;;;;;5.57;72.76;100643.53;4988657;28;20034;-75
2021/12/20 07:42:23;;;;;;;23.65;8.68;;;;;;;5.53;73.09;100641.00;4988845;28;20075;-75
2021/12/20 07:44:48;;;;;;;17.17;6.18;;;;;;;5.55;72.97;100636.63;4973243;28;20054;-75
2021/12/20 07:47:13;;;;;;;15.20;5.38;;;;;;;5.57;73.16;100645.31;4973759;28;20089;-73
2021/12/20 07:49:39;;;;;;;23.13;5.68;;;;;;;5.63;73.53;100639.09;4990559;28;20041;-75
2021/12/20 07:52:04;;;;;;;20.25;6.85;;;;;;;5.59;72.16;100647.00;4977105;28;20037;-75
2021/12/20 07:54:30;;;;;;;17.08;5.90;;;;;;;5.59;72.17;100641.78;4994751;28;20042;-75
2021/12/20 07:56:55;;;;;;;28.45;6.75;;;;;;;5.58;71.68;100647.88;4993459;28;20045;-74
2021/12/20 07:59:21;;;;;;;17.27;5.70;;;;;;;5.52;71.09;100647.13;4993899;28;20045;-75
2021/12/20 08:01:46;;;;;;;21.73;7.07;;;;;;;5.54;71.38;100648.84;4976032;28;20122;-74
2021/12/20 08:04:12;;;;;;;18.33;5.80;;;;;;;5.60;70.76;100650.47;4992897;28;20453;-76
2021/12/20 08:06:37;;;;;;;21.92;6.70;;;;;;;5.70;70.81;100653.81;4993210;28;20517;-75
2021/12/20 08:09:04;;;;;;;16.52;6.35;;;;;;;5.73;71.17;100651.16;4994034;28;20038;-76
2021/12/20 08:11:29;;;;;;;16.83;6.82;;;;;;;5.74;69.42;100639.81;4996373;28;20513;-73
2021/12/20 08:13:55;;;;;;;19.40;5.43;;;;;;;5.79;69.86;100640.59;4995762;28;20027;-75
2021/12/20 08:16:20;;;;;;;24.85;7.22;;;;;;;5.78;66.34;100639.75;4985321;28;20514;-73
2021/12/20 08:18:46;;;;;;;18.63;8.60;;;;;;;5.69;67.85;100642.50;4993429;28;20027;-74
2021/12/20 08:21:14;;;;;;;18.67;7.10;;;;;;;5.72;67.12;100644.22;4985380;28;20117;-74
2021/12/20 08:23:40;;;;;;;16.15;8.38;;;;;;;5.81;68.07;100644.94;4991796;28;20046;-74
2021/12/20 08:26:07;;;;;;;26.55;7.75;;;;;;;5.85;69.07;100637.03;4990371;28;20110;-74
2021/12/20 08:28:35;;;;;;;16.05;6.00;;;;;;;5.91;69.84;100650.88;4991514;28;20398;-74
2021/12/20 08:31:01;;;;;;;25.10;7.53;;;;;;;5.93;68.35;100649.09;4991851;28;20049;-75
2021/12/20 08:33:26;;;;;;;24.88;6.60;;;;;;;5.96;68.40;100650.84;4974565;28;20407;-75
2021/12/20 08:35:53;;;;;;;19.88;7.60;;;;;;;5.99;68.31;100650.78;4991437;28;20069;-74
2021/12/20 08:38:19;;;;;;;17.27;8.07;;;;;;;6.02;66.92;100642.88;4974802;28;20026;-75
2021/12/20 08:40:46;;;;;;;21.58;6.82;;;;;;;6.03;66.82;100644.63;4991836;28;20039;-75
2021/12/20 08:43:12;;;;;;;26.65;8.30;;;;;;;5.98;66.65;100656.88;4974351;28;20034;-74
2021/12/20 08:45:38;;;;;;;23.90;8.70;;;;;;;5.94;67.05;100653.47;4991060;28;20048;-75
2021/12/20 08:48:04;;;;;;;16.25;7.22;;;;;;;5.92;67.16;100660.44;4991709;28;20034;-74
2021/12/20 08:50:29;;;;;;;13.68;6.32;;;;;;;5.95;66.68;100665.66;4991174;28;20045;-74
2021/12/20 08:52:55;;;;;;;26.73;7.75;;;;;;;5.96;66.69;100656.94;4991080;28;20117;-75
2021/12/20 08:55:22;;;;;;;16.33;5.57;;;;;;;6.02;66.26;100655.97;4987951;28;20049;-74
2021/12/20 08:57:48;;;;;;;25.15;7.32;;;;;;;6.02;66.27;100663.81;4991311;28;20347;-76
2021/12/20 09:00:17;;;;;;;12.73;7.57;;;;;;;6.00;66.72;100657.72;4990654;28;20061;-74
2021/12/20 09:02:43;;;;;;;14.70;6.75;;;;;;;5.98;66.46;100654.28;4972526;28;20085;-75
2021/12/20 09:05:09;;;;;;;18.58;7.10;;;;;;;6.00;66.89;100657.72;4973407;28;20042;-75
2021/12/20 09:07:36;;;;;;;22.58;8.20;;;;;;;5.98;66.02;100657.78;4990838;28;20038;-75
2021/12/20 09:10:03;;;;;;;20.35;7.03;;;;;;;5.98;66.31;100662.13;4991691;28;20042;-75
2021/12/20 09:12:28;;;;;;;17.50;7.30;;;;;;;5.94;65.99;100665.69;4991301;28;20027;-75
2021/12/20 09:14:53;;;;;;;18.17;7.22;;;;;;;5.98;65.92;100669.97;4992934;28;20104;-75
2021/12/20 09:17:19;;;;;;;20.13;8.65;;;;;;;6.01;66.10;100664.72;4993968;28;20045;-74
2021/12/20 09:19:45;;;;;;;22.38;7.93;;;;;;;5.94;65.87;100666.56;4960273;28;20395;-75
2021/12/20 09:22:11;;;;;;;14.80;6.75;;;;;;;5.96;66.28;100666.53;4976593;28;20042;-75
2021/12/20 09:24:39;;;;;;;30.30;9.40;;;;;;;6.02;66.98;100669.03;4975059;28;20037;-76
2021/12/20 09:27:05;;;;;;;22.63;7.70;;;;;;;6.06;67.18;100670.72;4990546;28;20049;-74
2021/12/20 09:29:31;;;;;;;22.92;6.43;;;;;;;6.06;66.65;100670.72;4990639;28;20022;-75
2021/12/20 09:31:57;;;;;;;16.10;6.05;;;;;;;6.12;66.52;100672.38;4990563;28;20398;-77
2021/12/20 09:34:22;;;;;;;27.95;7.47;;;;;;;6.11;66.00;100670.66;4955551;28;20194;-77
2021/12/20 09:36:48;;;;;;;31.85;8.15;;;;;;;6.09;66.40;100678.53;4989307;28;20457;-75
2021/12/20 09:39:16;;;;;;;15.63;5.30;;;;;;;6.11;66.29;100674.13;4974153;28;20046;-76
2021/12/20 09:44:10;;;;;;;17.50;5.35;;;;;;;6.11;66.98;100684.63;4994547;28;20100;-76
2021/12/20 09:46:36;;;;;;;22.05;7.20;;;;;;;6.13;66.78;100685.44;4993244;28;20117;-76
2021/12/20 09:49:03;;;;;;;14.02;5.70;;;;;;;6.12;66.72;100678.47;4989191;28;20494;-75
2021/12/20 09:51:29;;;;;;;12.07;6.00;;;;;;;6.10;66.87;100676.78;4988544;28;20042;-76
2021/12/20 09:53:55;;;;;;;21.00;7.57;;;;;;;6.09;66.67;100683.75;4990644;28;20026;-77
2021/12/20 09:56:23;;;;;;;24.60;6.97;;;;;;;6.06;66.97;100685.59;4971590;28;20050;-77
2021/12/20 09:58:52;;;;;;;21.27;6.35;;;;;;;6.06;67.23;100693.44;4990472;28;20546;-76
2021/12/20 10:01:19;;;;;;;21.33;5.90;;;;;;;6.05;67.52;100699.53;4990451;28;20049;-77
2021/12/20 10:03:45;;;;;;;23.00;6.55;;;;;;;6.08;67.12;100692.53;4992304;28;20042;-77
2021/12/20 10:06:11;;;;;;;15.52;6.68;;;;;;;6.12;67.19;100698.56;4989895;28;20174;-77
2021/12/20 10:08:41;;;;;;;11.32;5.60;;;;;;;6.10;67.12;100702.94;4989771;28;20088;-77
2021/12/20 10:11:17;;;;;;;21.83;6.70;;;;;;;6.06;67.43;100704.75;4989702;28;20042;-78
2021/12/20 10:13:43;;;;;;;23.60;6.32;;;;;;;6.12;67.75;100702.03;4986843;28;20102;-76
2021/12/20 10:16:21;;;;;;;13.88;5.85;;;;;;;6.13;68.25;100700.28;4986739;28;20039;-74
2021/12/20 10:18:47;;;;;;;19.70;7.50;;;;;;;6.10;67.99;100701.19;4969569;28;20114;-75
2021/12/20 10:21:13;;;;;;;15.27;5.75;;;;;;;6.14;68.13;100700.25;4987340;28;20022;-75
2021/12/20 10:23:44;;;;;;;15.95;6.82;;;;;;;6.15;67.70;100699.38;4987743;28;20080;-74
2021/12/20 10:26:14;;;;;;;28.17;7.20;;;;;;;6.16;67.39;100702.88;4969319;28;20046;-75
2021/12/20 10:28:42;;;;;;;21.75;6.90;;;;;;;6.16;68.06;100698.50;4987203;28;20061;-75
2021/12/20 10:31:14;;;;;;;23.83;6.78;;;;;;;6.19;68.25;100702.81;4987125;28;20042;-75
2021/12/20 10:33:40;;;;;;;24.15;7.93;;;;;;;6.18;68.17;100696.72;4969784;28;20027;-75
2021/12/20 10:36:13;;;;;;;23.63;8.20;;;;;;;6.22;68.28;100693.13;4986601;28;20138;-76
2021/12/20 10:38:43;;;;;;;27.00;7.88;;;;;;;6.20;68.42;100687.09;4987974;28;20117;-75
2021/12/20 10:41:16;;;;;;;20.02;7.13;;;;;;;6.24;68.28;100686.13;4970344;28;20097;-75
2021/12/20 10:43:50;;;;;;;29.42;7.65;;;;;;;6.28;68.54;100688.72;4987232;28;20049;-75
2021/12/20 10:46:24;;;;;;;23.45;7.63;;;;;;;6.31;68.68;100686.88;4986640;28;20035;-75
2021/12/20 10:48:52;;;;;;;28.45;8.55;;;;;;;6.36;68.49;100690.28;4987861;28;20037;-75
2021/12/20 10:51:19;;;;;;;29.77;7.35;;;;;;;6.36;68.81;100690.28;4987553;28;20045;-75
2021/12/20 10:53:57;;;;;;;30.13;9.32;;;;;;;6.36;68.81;100692.91;4987686;28;20517;-75
2021/12/20 10:56:22;;;;;;;17.65;6.60;;;;;;;6.36;69.30;100686.81;4986408;28;20117;-75
2021/12/20 10:58:48;;;;;;;22.95;7.47;;;;;;;6.35;68.87;100693.81;4987765;28;20451;-75
2021/12/20 11:01:21;;;;;;;29.48;9.80;;;;;;;6.38;69.44;100687.66;4969717;28;20552;-75
2021/12/20 11:03:59;;;;;;;23.17;8.50;;;;;;;6.44;68.85;100688.38;4971804;28;20034;-75
2021/12/20 11:06:26;;;;;;;25.25;8.52;;;;;;;6.39;68.97;100678.91;4987382;28;20092;-74
2021/12/20 11:09:05;;;;;;;24.15;9.05;;;;;;;6.36;68.87;100684.19;4988625;28;20121;-75
2021/12/20 11:11:43;;;;;;;20.35;6.30;;;;;;;6.44;68.56;100684.91;4988530;28;20073;-75
2021/12/20 11:14:09;;;;;;;21.70;9.38;;;;;;;6.49;68.64;100684.84;4985876;28;20045;-75
2021/12/20 11:16:49;;;;;;;39.70;9.88;;;;;;;6.54;68.97;100683.00;4994113;28;20043;-75
2021/12/20 11:19:33;;;;;;;24.85;7.30;;;;;;;6.54;68.92;100681.22;4994810;28;20061;-76
2021/12/20 11:22:07;;;;;;;22.80;8.73;;;;;;;6.62;69.53;100681.97;4989262;28;20065;-77
2021/12/20 11:24:51;;;;;;;25.73;8.15;;;;;;;6.61;67.71;100680.22;4987943;28;20514;-77
2021/12/20 11:27:32;;;;;;;18.20;7.65;;;;;;;6.71;67.87;100680.06;4973975;28;20510;-78
2021/12/20 11:30:00;;;;;;;32.75;8.18;;;;;;;6.75;67.08;100671.25;4991013;28;20039;-77
2021/12/20 11:32:26;;;;;;;21.80;9.05;;;;;;;6.82;66.39;100678.97;4991277;28;20037;-77
2021/12/20 11:34:52;;;;;;;20.83;7.32;;;;;;;6.80;65.91;100682.53;4990501;28;20039;-77
2021/12/20 11:37:21;;;;;;;18.27;8.77;;;;;;;6.90;65.71;100672.72;4991598;28;20034;-78